createdAt,value
2022-08-14T00:02:14.206Z,2.90
2022-08-14T00:04:45.071Z,3.22
2022-08-14T00:07:14.125Z,3.70
2022-08-14T00:10:01.403Z,3.70
2022-08-14T00:12:37.719Z,3.38
2022-08-14T00:15:16.667Z,3.80
2022-08-14T00:17:53.504Z,3.22
2022-08-14T00:20:30.985Z,3.70
2022-08-14T00:23:16.222Z,3.75
2022-08-14T00:25:54.069Z,3.05
2022-08-14T00:28:35.171Z,4.03
2022-08-14T00:31:03.298Z,3.63
2022-08-14T00:33:50.543Z,3.70
2022-08-14T00:36:36.737Z,3.60
2022-08-14T00:39:06.458Z,3.45
2022-08-14T00:41:34.961Z,3.47
2022-08-14T00:44:02.198Z,3.80
2022-08-14T00:46:32.640Z,3.22
2022-08-14T00:49:02.126Z,3.35
2022-08-14T00:51:34.801Z,3.42
2022-08-14T00:54:16.980Z,3.22
2022-08-14T00:56:55.127Z,2.90
2022-08-14T00:59:27.397Z,3.15
2022-08-14T01:01:59.275Z,3.40
2022-08-14T01:04:51.546Z,3.15
2022-08-14T01:07:21.309Z,3.33
2022-08-14T01:09:53.986Z,3.15
2022-08-14T01:12:27.336Z,3.38
2022-08-14T01:14:59.081Z,2.88
2022-08-14T01:17:49.520Z,3.28
2022-08-14T01:20:39.659Z,3.10
2022-08-14T01:23:16.379Z,2.88
2022-08-14T01:25:48.096Z,2.80
2022-08-14T01:28:46.803Z,3.05
2022-08-14T01:31:06.651Z,2.40
2022-08-14T01:35:16.022Z,3.00
2022-08-14T01:36:23.189Z,2.80
2022-08-14T01:38:53.725Z,2.92
2022-08-14T01:41:29.838Z,2.60
2022-08-14T01:44:02.276Z,3.40
2022-08-14T01:46:36.699Z,2.67
2022-08-14T01:49:17.858Z,2.73
2022-08-14T01:51:45.611Z,3.10
2022-08-14T01:54:22.343Z,3.17
2022-08-14T01:56:56.402Z,3.03
2022-08-14T01:59:31.696Z,2.72
2022-08-14T02:02:19.626Z,3.20
2022-08-14T02:04:56.617Z,2.55
2022-08-14T02:07:44.722Z,3.38
2022-08-14T02:10:15.796Z,2.80
2022-08-14T02:12:54.315Z,3.15
2022-08-14T02:15:26.420Z,2.90
2022-08-14T02:17:53.550Z,2.78
2022-08-14T02:20:23.685Z,2.65
2022-08-14T02:22:54.684Z,2.95
2022-08-14T02:25:23.051Z,3.05
2022-08-14T02:28:22.427Z,2.90
2022-08-14T02:30:38.213Z,2.95
2022-08-14T02:33:07.149Z,2.58
2022-08-14T02:35:40.528Z,3.28
2022-08-14T02:38:11.509Z,3.13
2022-08-14T02:40:40.571Z,2.72
2022-08-14T02:43:10.389Z,2.22
2022-08-14T02:45:38.876Z,2.55
2022-08-14T02:49:00.957Z,2.42
2022-08-14T02:51:02.695Z,2.47
2022-08-14T02:53:31.376Z,2.83
2022-08-14T02:56:03.204Z,2.47
2022-08-14T02:58:49.559Z,2.50
2022-08-14T03:01:19.490Z,2.42
2022-08-14T03:03:48.658Z,2.97
2022-08-14T03:06:20.673Z,2.38
2022-08-14T03:09:03.676Z,2.70
2022-08-14T03:11:34.649Z,2.20
2022-08-14T03:14:02.314Z,2.88
2022-08-14T03:16:36.340Z,2.60
2022-08-14T03:19:07.707Z,2.70
2022-08-14T03:21:36.702Z,2.53
2022-08-14T03:24:21.307Z,2.60
2022-08-14T03:26:57.418Z,2.90
2022-08-14T03:29:26.416Z,2.53
2022-08-14T03:31:53.893Z,2.40
2022-08-14T03:34:47.747Z,2.17
2022-08-14T03:37:50.920Z,2.30
2022-08-14T03:40:00.470Z,2.40
2022-08-14T03:42:35.755Z,2.30
2022-08-14T03:45:26.383Z,2.40
2022-08-14T03:48:01.686Z,2.30
2022-08-14T03:50:31.339Z,2.40
2022-08-14T03:53:01.863Z,2.40
2022-08-14T03:55:30.165Z,2.45
2022-08-14T03:58:00.391Z,2.45
2022-08-14T04:00:42.621Z,2.30
2022-08-14T04:03:19.763Z,2.70
2022-08-14T04:05:51.531Z,2.15
2022-08-14T04:08:29.472Z,2.53
2022-08-14T04:11:00.871Z,2.40
2022-08-14T04:13:31.942Z,2.58
2022-08-14T04:16:06.769Z,2.10
2022-08-14T04:18:43.501Z,2.10
2022-08-14T04:23:49.214Z,2.42
2022-08-14T04:26:42.356Z,2.35
2022-08-14T04:29:16.048Z,2.45
2022-08-14T04:33:02.347Z,2.25
2022-08-14T04:34:31.433Z,2.65
2022-08-14T04:37:17.520Z,2.10
2022-08-14T04:40:12.247Z,2.25
2022-08-14T04:42:59.049Z,2.83
2022-08-14T04:45:36.621Z,2.25
2022-08-14T04:48:39.345Z,2.50
2022-08-14T04:51:03.510Z,2.50
2022-08-14T04:53:35.383Z,2.35
2022-08-14T04:56:10.448Z,2.17
2022-08-14T04:58:39.427Z,2.20
2022-08-14T05:01:12.815Z,2.65
2022-08-14T05:03:46.847Z,2.33
2022-08-14T05:21:55.893Z,2.15
2022-08-14T05:23:05.016Z,2.47
2022-08-14T05:25:33.714Z,2.70
2022-08-14T05:28:20.583Z,2.92
2022-08-14T05:30:49.424Z,2.65
2022-08-14T05:33:18.694Z,2.58
2022-08-14T05:35:46.773Z,2.97
2022-08-14T05:38:30.559Z,2.80
2022-08-14T05:40:58.542Z,2.55
2022-08-14T05:43:25.672Z,3.00
2022-08-14T05:46:27.994Z,2.40
2022-08-14T05:48:57.584Z,3.20
2022-08-14T05:51:25.745Z,3.08
2022-08-14T05:54:01.771Z,3.95
2022-08-14T05:56:40.163Z,2.72
2022-08-14T05:59:09.205Z,2.85
2022-08-14T06:01:37.908Z,2.90
2022-08-14T06:04:05.312Z,2.67
2022-08-14T06:06:36.733Z,2.80
2022-08-14T06:09:26.219Z,2.65
2022-08-14T06:11:53.357Z,3.42
2022-08-14T06:14:23.967Z,2.90
2022-08-14T06:16:53.220Z,2.70
2022-08-14T06:19:23.050Z,3.20
2022-08-14T06:21:58.166Z,2.72
2022-08-14T06:24:26.965Z,2.50
2022-08-14T06:26:56.893Z,2.60
2022-08-14T06:29:32.353Z,2.60
2022-08-14T06:32:36.465Z,2.60
2022-08-14T06:35:11.156Z,2.80
2022-08-14T06:37:49.141Z,3.10
2022-08-14T06:40:26.952Z,3.10
2022-08-14T06:43:03.670Z,2.70
2022-08-14T06:48:06.335Z,2.50
2022-08-14T06:50:39.926Z,2.90
2022-08-14T07:32:22.313Z,2.13
2022-08-14T07:35:02.100Z,2.50
2022-08-14T07:37:29.701Z,2.60
2022-08-14T07:39:56.704Z,2.78
2022-08-14T07:42:23.945Z,2.25
2022-08-14T07:44:51.002Z,2.50
2022-08-14T07:47:18.117Z,2.42
2022-08-14T07:50:08.114Z,2.60
2022-08-14T07:52:38.202Z,2.75
2022-08-14T07:55:06.621Z,2.53
2022-08-14T07:57:36.067Z,2.55
2022-08-14T08:00:09.862Z,1.88
2022-08-14T08:02:57.279Z,2.65
2022-08-14T08:05:28.189Z,2.50
2022-08-14T08:07:55.435Z,2.40
2022-08-14T08:11:01.835Z,2.78
2022-08-14T08:13:23.904Z,2.13
2022-08-14T08:15:59.673Z,2.58
2022-08-14T08:18:29.822Z,2.58
2022-08-14T08:21:00.288Z,2.08
2022-08-14T08:23:40.148Z,2.55
2022-08-14T08:26:10.923Z,2.50
2022-08-14T08:28:38.149Z,2.10
2022-08-14T08:31:12.741Z,2.10
2022-08-14T08:33:42.636Z,2.55
2022-08-14T08:36:18.499Z,2.17
2022-08-14T08:39:15.756Z,2.15
2022-08-14T08:41:49.317Z,1.98
2022-08-14T08:44:31.672Z,1.95
2022-08-14T08:47:08.143Z,2.40
2022-08-14T08:49:48.130Z,2.97
2022-08-14T08:52:25.472Z,1.95
2022-08-14T08:54:58.729Z,1.92
2022-08-14T08:57:26.550Z,1.88
2022-08-14T08:59:55.374Z,2.22
2022-08-14T09:02:27.548Z,1.73
2022-08-14T09:05:02.785Z,1.80
2022-08-14T09:07:30.595Z,2.00
2022-08-14T09:09:59.918Z,2.00
2022-08-14T09:12:33.133Z,1.90
2022-08-14T09:15:09.093Z,2.20
2022-08-14T09:17:41.278Z,1.88
2022-08-14T09:20:11.546Z,1.83
2022-08-14T09:22:47.556Z,2.10
2022-08-14T09:25:19.478Z,1.85
2022-08-14T09:27:47.369Z,2.15
2022-08-14T09:30:32.645Z,2.00
2022-08-14T09:33:11.624Z,2.17
2022-08-14T09:35:57.932Z,2.00
2022-08-14T09:38:43.497Z,1.80
2022-08-14T09:44:46.100Z,2.08
2022-08-14T09:47:17.135Z,2.15
2022-08-14T09:49:52.178Z,1.90
2022-08-14T09:52:33.113Z,2.10
2022-08-14T09:55:00.968Z,2.05
2022-08-14T09:57:31.382Z,2.03
2022-08-14T09:59:59.062Z,1.50
2022-08-14T10:02:31.595Z,1.75
2022-08-14T10:05:30.410Z,1.67
2022-08-14T10:10:41.824Z,1.65
2022-08-14T10:13:23.888Z,1.75
2022-08-14T10:15:51.405Z,2.00
2022-08-14T10:18:21.437Z,2.45
2022-08-14T10:20:58.140Z,2.20
2022-08-14T10:23:33.662Z,2.00
2022-08-14T10:26:07.350Z,2.28
2022-08-14T10:29:14.205Z,2.47
2022-08-14T10:31:40.322Z,2.15
2022-08-14T10:34:29.310Z,1.77
2022-08-14T10:37:27.942Z,2.05
2022-08-14T10:40:10.784Z,1.80
2022-08-14T10:42:49.611Z,2.20
2022-08-14T10:45:22.498Z,2.10
2022-08-14T10:48:09.240Z,1.98
2022-08-14T10:50:45.905Z,1.90
2022-08-14T10:53:14.260Z,2.05
2022-08-14T10:55:45.153Z,2.10
2022-08-14T10:58:14.764Z,2.15
2022-08-14T11:00:56.608Z,2.08
2022-08-14T11:11:45.475Z,1.60
2022-08-14T11:14:22.102Z,2.33
2022-08-14T11:16:53.681Z,1.60
2022-08-14T11:19:24.210Z,1.77
2022-08-14T11:21:55.480Z,1.77
2022-08-14T11:24:54.984Z,1.83
2022-08-14T11:27:19.409Z,1.63
2022-08-14T11:29:52.589Z,1.83
2022-08-14T11:32:29.496Z,1.95
2022-08-14T11:34:58.143Z,1.80
2022-08-14T11:37:35.242Z,1.90
2022-08-14T11:40:31.567Z,1.70
2022-08-14T11:43:05.386Z,1.80
2022-08-14T11:45:37.144Z,1.42
2022-08-14T11:49:03.432Z,2.03
2022-08-14T11:51:17.911Z,1.70
2022-08-14T11:54:02.178Z,1.80
2022-08-14T11:56:43.018Z,1.60
2022-08-14T11:59:18.284Z,1.80
2022-08-14T12:01:48.900Z,2.10
2022-08-14T12:04:31.999Z,1.90
2022-08-14T12:07:01.751Z,1.80
2022-08-14T12:09:38.779Z,2.10
2022-08-14T12:12:36.104Z,1.77
2022-08-14T12:15:06.875Z,1.90
2022-08-14T12:17:53.537Z,1.60
2022-08-14T12:20:34.050Z,1.83
2022-08-14T12:23:06.582Z,1.90
2022-08-14T12:25:35.729Z,1.85
2022-08-14T12:28:27.184Z,1.52
2022-08-14T12:30:59.661Z,2.05
2022-08-14T12:33:33.473Z,1.80
2022-08-14T12:36:25.378Z,1.80
2022-08-14T12:38:54.154Z,2.00
2022-08-14T12:41:24.050Z,2.40
2022-08-14T12:43:59.847Z,2.55
2022-08-14T12:46:38.194Z,2.30
2022-08-14T12:49:16.228Z,2.17
2022-08-14T12:51:45.030Z,1.98
2022-08-14T12:54:28.141Z,2.30
2022-08-14T12:57:19.689Z,2.58
2022-08-14T12:59:49.484Z,2.92
2022-08-14T13:02:27.217Z,2.42
2022-08-14T13:04:56.803Z,3.13
2022-08-14T13:07:32.041Z,2.80
2022-08-14T13:10:00.522Z,2.50
2022-08-14T13:13:11.911Z,2.40
2022-08-14T13:15:36.560Z,2.35
2022-08-14T13:18:05.002Z,2.38
2022-08-14T13:20:33.585Z,2.30
2022-08-14T13:23:02.496Z,2.20
2022-08-14T13:25:29.872Z,2.30
2022-08-14T13:28:00.137Z,2.33
2022-08-14T13:30:27.715Z,2.28
2022-08-14T13:32:58.066Z,2.10
2022-08-14T13:35:25.871Z,2.30
2022-08-14T13:37:53.439Z,2.78
2022-08-14T13:40:26.275Z,2.17
2022-08-14T13:42:56.811Z,2.50
2022-08-14T13:45:34.204Z,2.28
2022-08-14T13:48:32.073Z,2.38
2022-08-14T13:51:03.540Z,2.13
2022-08-14T13:53:33.881Z,1.98
2022-08-14T13:56:02.901Z,1.95
2022-08-14T13:58:35.597Z,2.10
2022-08-14T14:01:04.456Z,2.17
2022-08-14T14:03:35.528Z,2.20
2022-08-14T14:06:03.654Z,1.98
2022-08-14T14:08:43.257Z,2.20
2022-08-14T14:11:16.522Z,2.05
2022-08-14T14:13:46.557Z,1.92
2022-08-14T14:16:22.072Z,2.25
2022-08-14T14:19:02.118Z,2.75
2022-08-14T14:21:32.736Z,2.20
2022-08-14T14:23:59.915Z,2.33
2022-08-14T14:26:30.438Z,2.30
2022-08-14T14:29:01.802Z,2.35
2022-08-14T14:31:31.376Z,2.38
2022-08-14T14:34:07.585Z,2.10
2022-08-14T14:36:52.605Z,2.85
2022-08-14T14:39:28.849Z,2.40
2022-08-14T14:42:04.261Z,2.88
2022-08-14T14:44:53.232Z,2.58
2022-08-14T14:47:24.357Z,2.63
2022-08-14T14:49:55.557Z,2.72
2022-08-14T14:52:27.727Z,2.40
2022-08-14T14:54:58.399Z,2.50
2022-08-14T14:57:34.970Z,2.30
2022-08-14T15:00:19.496Z,2.40
2022-08-14T15:02:49.714Z,2.60
2022-08-14T15:05:20.199Z,2.60
2022-08-14T15:07:49.894Z,2.50
2022-08-14T15:10:27.462Z,2.38
2022-08-14T15:13:00.526Z,2.72
2022-08-14T15:15:32.989Z,3.30
2022-08-14T15:18:01.186Z,2.72
2022-08-14T15:20:31.015Z,3.35
2022-08-14T15:23:12.280Z,2.75
2022-08-14T15:25:52.930Z,3.08
2022-08-14T15:28:21.025Z,3.85
2022-08-14T15:30:51.091Z,4.15
2022-08-14T15:34:13.214Z,4.15
2022-08-14T15:36:31.439Z,4.20
2022-08-14T15:38:59.620Z,3.50
2022-08-14T15:41:27.371Z,3.90
2022-08-14T15:44:18.919Z,3.70
2022-08-14T15:46:52.788Z,4.47
2022-08-14T15:49:20.213Z,3.58
2022-08-14T15:51:48.616Z,3.75
2022-08-14T15:54:18.061Z,4.30
2022-08-14T15:57:10.398Z,3.95
2022-08-14T15:59:57.363Z,3.95
2022-08-14T16:02:28.056Z,3.90
2022-08-14T16:04:56.197Z,4.45
2022-08-14T16:07:27.371Z,4.13
2022-08-14T16:10:18.320Z,4.20
2022-08-14T16:12:47.653Z,4.05
2022-08-14T16:15:16.717Z,3.50
2022-08-14T16:17:44.994Z,3.88
2022-08-14T16:20:42.221Z,4.03
2022-08-14T16:23:11.448Z,4.18
2022-08-14T16:25:52.669Z,4.18
2022-08-14T16:28:27.595Z,4.15
2022-08-14T16:30:56.088Z,4.18
2022-08-14T16:33:27.903Z,4.00
2022-08-14T16:36:17.291Z,3.83
2022-08-14T16:39:00.069Z,4.38
2022-08-14T16:41:28.107Z,3.55
2022-08-14T16:44:13.687Z,4.63
2022-08-14T16:46:49.842Z,4.10
2022-08-14T16:50:03.853Z,4.28
2022-08-14T16:52:44.159Z,4.38
2022-08-14T16:55:22.655Z,4.60
2022-08-14T16:57:58.855Z,4.45
2022-08-14T17:00:43.739Z,4.35
2022-08-14T17:03:13.359Z,3.80
2022-08-14T17:05:43.379Z,3.97
2022-08-14T17:08:42.594Z,4.35
2022-08-14T17:11:13.515Z,4.10
2022-08-14T17:13:58.719Z,4.50
2022-08-14T17:16:37.642Z,4.22
2022-08-14T17:19:09.807Z,4.20
2022-08-14T17:21:42.048Z,4.40
2022-08-14T17:24:51.508Z,4.63
2022-08-14T17:27:04.006Z,4.45
2022-08-14T17:29:56.119Z,4.90
2022-08-14T17:32:30.030Z,4.43
2022-08-14T17:35:16.901Z,4.90
2022-08-14T17:37:46.622Z,4.68
2022-08-14T17:40:25.728Z,4.40
2022-08-14T17:43:11.288Z,4.60
2022-08-14T17:45:42.801Z,4.78
2022-08-14T17:49:10.845Z,4.50
2022-08-14T17:51:23.722Z,4.20
2022-08-14T17:54:02.720Z,5.03
2022-08-14T17:56:32.044Z,4.50
2022-08-14T17:59:05.067Z,4.50
2022-08-14T18:01:37.833Z,3.60
2022-08-14T18:04:24.418Z,3.92
2022-08-14T18:07:06.043Z,3.78
2022-08-14T18:09:57.475Z,4.57
2022-08-14T18:12:36.859Z,4.03
2022-08-14T18:15:16.630Z,3.83
2022-08-14T18:17:53.198Z,4.13
2022-08-14T18:21:42.864Z,3.75
2022-08-14T18:23:24.076Z,4.25
2022-08-14T18:25:54.389Z,4.03
2022-08-14T18:28:51.022Z,3.75
2022-08-14T18:31:24.256Z,4.32
2022-08-14T18:33:57.058Z,4.05
2022-08-14T18:36:55.521Z,4.00
2022-08-14T18:40:03.401Z,4.15
2022-08-14T18:42:30.487Z,4.32
2022-08-14T18:45:00.992Z,4.47
2022-08-14T18:47:32.663Z,4.60
2022-08-14T18:50:26.838Z,4.07
2022-08-14T18:53:08.965Z,4.00
2022-08-14T18:55:37.559Z,4.05
2022-08-14T18:58:28.247Z,4.10
2022-08-14T19:01:02.419Z,4.15
2022-08-14T19:03:36.411Z,4.40
2022-08-14T19:06:15.035Z,4.50
2022-08-14T19:08:50.486Z,4.80
2022-08-14T19:11:37.061Z,4.70
2022-08-14T19:14:06.201Z,5.28
2022-08-14T19:16:43.228Z,4.95
2022-08-14T19:19:17.148Z,4.97
2022-08-14T19:21:57.600Z,6.03
2022-08-14T19:24:34.304Z,5.60
2022-08-14T19:27:23.781Z,5.15
2022-08-14T19:30:20.065Z,5.25
2022-08-14T19:32:53.195Z,4.68
2022-08-14T19:38:11.087Z,5.38
2022-08-14T19:41:01.370Z,5.50
2022-08-14T19:43:55.209Z,4.88
2022-08-14T19:46:38.867Z,4.82
2022-08-14T19:49:11.253Z,6.10
2022-08-14T19:51:47.050Z,4.57
2022-08-14T19:54:17.079Z,5.10
2022-08-14T19:56:46.174Z,4.85
2022-08-14T19:59:19.149Z,4.85
2022-08-14T20:01:51.311Z,4.75
2022-08-14T20:04:47.644Z,4.80
2022-08-14T20:07:59.246Z,4.60
2022-08-14T20:11:07.737Z,5.28
2022-08-14T20:13:32.487Z,5.10
2022-08-14T20:16:32.342Z,4.82
2022-08-14T20:19:12.072Z,4.85
2022-08-14T20:22:04.175Z,4.93
2022-08-14T20:24:40.972Z,4.80
2022-08-14T20:27:22.814Z,4.80
2022-08-14T20:30:34.634Z,4.65
2022-08-14T20:33:24.767Z,5.20
2022-08-14T20:38:33.685Z,4.43
2022-08-14T20:41:10.593Z,4.53
2022-08-14T20:44:00.726Z,4.28
2022-08-14T20:46:38.571Z,5.25
2022-08-14T20:49:30.391Z,4.65
2022-08-14T20:52:20.130Z,4.30
2022-08-14T20:54:51.539Z,3.97
2022-08-14T20:57:19.134Z,4.70
2022-08-14T20:59:53.587Z,4.72
2022-08-14T21:03:56.438Z,4.15
2022-08-14T21:07:23.184Z,4.70
2022-08-14T21:09:43.912Z,4.10
2022-08-14T21:12:33.736Z,4.05
2022-08-14T21:15:02.054Z,3.67
2022-08-14T21:17:30.414Z,4.53
2022-08-14T21:19:58.115Z,4.32
2022-08-14T21:22:27.087Z,3.70
2022-08-14T21:25:01.459Z,4.10
2022-08-14T21:27:29.159Z,3.83
2022-08-14T21:32:58.012Z,3.47
2022-08-14T21:35:25.988Z,4.32
2022-08-14T21:37:53.942Z,3.90
2022-08-14T21:40:42.366Z,3.80
2022-08-14T21:43:18.876Z,4.03
2022-08-14T21:45:54.062Z,3.95
2022-08-14T21:48:32.111Z,4.28
2022-08-14T21:51:56.026Z,4.38
2022-08-14T21:53:58.654Z,3.95
2022-08-14T21:56:39.629Z,3.90
2022-08-14T21:59:17.849Z,3.90
2022-08-14T22:02:01.082Z,4.07
2022-08-14T22:04:40.737Z,3.78
2022-08-14T22:07:17.259Z,4.05
2022-08-14T22:09:54.955Z,3.97
2022-08-14T22:12:58.918Z,4.40
2022-08-14T22:15:14.748Z,3.70
2022-08-14T22:17:44.205Z,3.75
2022-08-14T22:20:16.371Z,4.07
2022-08-14T22:22:44.844Z,3.55
2022-08-14T22:25:17.469Z,4.43
2022-08-14T22:27:55.260Z,3.90
2022-08-14T22:30:24.011Z,3.97
2022-08-14T22:32:57.797Z,4.70
2022-08-14T22:35:26.093Z,4.05
2022-08-14T22:38:01.735Z,4.55
2022-08-14T22:40:59.416Z,3.80
2022-08-14T22:43:35.143Z,3.90
2022-08-14T22:46:06.158Z,4.32
2022-08-14T22:48:52.137Z,3.78
2022-08-14T22:51:22.311Z,4.35
2022-08-14T22:53:53.297Z,4.18
2022-08-14T22:56:30.112Z,4.22
2022-08-14T22:59:00.783Z,4.28
2022-08-14T23:01:56.107Z,4.10
2022-08-14T23:04:35.033Z,4.60
2022-08-14T23:07:14.426Z,3.97
2022-08-14T23:10:32.617Z,4.00
2022-08-14T23:12:54.832Z,4.03
2022-08-14T23:15:24.529Z,4.53
2022-08-14T23:17:56.019Z,4.15
2022-08-14T23:20:23.726Z,4.28
2022-08-14T23:22:57.951Z,4.38
2022-08-14T23:25:44.640Z,4.35
2022-08-14T23:28:33.401Z,4.22
2022-08-14T23:31:05.761Z,4.38
2022-08-14T23:33:33.929Z,4.80
2022-08-14T23:36:28.255Z,4.40
2022-08-14T23:38:54.227Z,4.65
2022-08-14T23:41:21.652Z,4.72
2022-08-14T23:43:54.703Z,5.10
2022-08-14T23:46:34.570Z,4.82
2022-08-14T23:49:05.153Z,4.93
2022-08-14T23:51:36.467Z,4.93
2022-08-14T23:54:06.000Z,4.88
2022-08-14T23:56:59.912Z,4.90
2022-08-14T23:59:30.642Z,5.00
